Time;durP1;ratioP1;P1;durP2;ratioP2;P2;SDS_P1;SDS_P2;PMS_P1;PMS_P2;Temp;Humidity;BMP_temperature;BMP_pressure;BME280_temperature;BME280_humidity;BME280_pressure;Samples;Min_cycle;Max_cycle;Signal;HPM_P1;HPM_P2
2023/12/25 00:02:24;;;;;;;25.38;3.45;;;;;;;;;;5112954;28;20026;-77
2023/12/25 00:04:50;;;;;;;17.65;3.28;;;;;;;;;;5113411;28;20107;-78
2023/12/25 00:07:16;;;;;;;22.50;3.35;;;;;;;;;;5116264;28;20068;-75
2023/12/25 00:09:42;;;;;;;15.98;3.13;;;;;;;;;;5130020;28;20032;-75
2023/12/25 00:12:08;;;;;;;22.25;2.70;;;;;;;;;;5129594;28;20027;-74
2023/12/25 00:14:34;;;;;;;18.45;3.38;;;;;;;;;;5125703;28;20031;-76
2023/12/25 00:17:00;;;;;;;28.17;3.70;;;;;;;;;;5119406;28;20020;-77
2023/12/25 00:19:26;;;;;;;24.73;2.88;;;;;;;;;;5116334;28;20069;-75
2023/12/25 00:21:52;;;;;;;19.92;3.03;;;;;;;;;;5115747;28;20027;-75
2023/12/25 00:24:18;;;;;;;13.38;2.67;;;;;;;;;;5116016;28;20486;-76
2023/12/25 00:26:44;;;;;;;23.48;2.90;;;;;;;;;;5116157;28;20020;-75
2023/12/25 00:29:10;;;;;;;22.38;2.90;;;;;;;;;;5116047;28;20039;-76
2023/12/25 00:31:36;;;;;;;25.05;4.45;;;;;;;;;;5115713;28;20030;-75
2023/12/25 00:34:02;;;;;;;21.50;2.55;;;;;;;;;;5116470;27;20390;-75
2023/12/25 00:36:28;;;;;;;20.02;3.00;;;;;;;;;;5115831;28;20031;-75
2023/12/25 00:38:54;;;;;;;26.90;3.22;;;;;;;;;;5115873;28;20031;-75
2023/12/25 00:41:20;;;;;;;16.48;2.60;;;;;;;;;;5115833;28;20022;-76
2023/12/25 00:43:46;;;;;;;18.33;2.63;;;;;;;;;;5115896;27;20019;-75
2023/12/25 00:46:12;;;;;;;20.65;2.78;;;;;;;;;;5115807;28;20024;-77
2023/12/25 00:48:38;;;;;;;14.27;2.47;;;;;;;;;;5115694;28;20030;-75
2023/12/25 00:51:04;;;;;;;17.48;2.20;;;;;;;;;;5115508;28;20026;-77
2023/12/25 00:53:30;;;;;;;18.02;2.40;;;;;;;;;;5115872;28;20123;-76
2023/12/25 00:55:56;;;;;;;16.00;2.50;;;;;;;;;;5115718;28;20034;-77
2023/12/25 00:58:22;;;;;;;14.07;2.17;;;;;;;;;;5115265;28;20035;-76
2023/12/25 01:00:48;;;;;;;20.48;2.88;;;;;;;;;;5112323;28;20039;-76
2023/12/25 01:03:14;;;;;;;19.70;2.58;;;;;;;;;;5113894;28;20094;-77
2023/12/25 01:05:40;;;;;;;18.48;2.38;;;;;;;;;;5104255;28;20024;-76
2023/12/25 01:08:06;;;;;;;17.40;2.85;;;;;;;;;;5095086;28;20412;-76
2023/12/25 01:10:32;;;;;;;13.65;2.20;;;;;;;;;;5095243;28;20038;-77
2023/12/25 01:12:58;;;;;;;18.83;2.53;;;;;;;;;;5094481;28;20103;-77
2023/12/25 01:15:24;;;;;;;21.65;2.75;;;;;;;;;;5093486;28;20077;-76
2023/12/25 01:17:50;;;;;;;17.05;2.35;;;;;;;;;;5094746;28;20031;-75
2023/12/25 01:20:16;;;;;;;17.50;2.42;;;;;;;;;;5094442;28;20387;-77
2023/12/25 01:22:42;;;;;;;16.50;2.17;;;;;;;;;;5094546;28;20016;-75
2023/12/25 01:25:08;;;;;;;24.65;3.03;;;;;;;;;;5094713;28;20479;-76
2023/12/25 01:27:35;;;;;;;20.13;2.95;;;;;;;;;;5094544;28;20028;-76
2023/12/25 01:30:01;;;;;;;23.90;2.70;;;;;;;;;;5094342;28;20020;-75
2023/12/25 01:32:27;;;;;;;14.48;2.35;;;;;;;;;;5094113;28;20031;-76
2023/12/25 01:34:53;;;;;;;16.27;2.28;;;;;;;;;;5094284;28;20480;-76
2023/12/25 01:37:19;;;;;;;18.08;2.10;;;;;;;;;;5094394;28;20032;-76
2023/12/25 01:39:45;;;;;;;20.83;2.70;;;;;;;;;;5094654;28;20027;-76
2023/12/25 01:42:11;;;;;;;10.40;1.92;;;;;;;;;;5094205;28;20096;-76
2023/12/25 01:44:37;;;;;;;14.50;2.10;;;;;;;;;;5094293;28;20472;-77
2023/12/25 01:47:03;;;;;;;18.50;2.40;;;;;;;;;;5095508;28;20028;-76
2023/12/25 01:49:29;;;;;;;11.20;2.10;;;;;;;;;;5106985;28;20032;-75
2023/12/25 01:51:55;;;;;;;17.92;2.65;;;;;;;;;;5116400;28;20024;-75
2023/12/25 01:54:21;;;;;;;13.35;2.00;;;;;;;;;;5114566;28;20023;-75
2023/12/25 01:56:47;;;;;;;19.30;2.28;;;;;;;;;;5110506;28;20095;-75
2023/12/25 01:59:13;;;;;;;13.43;2.15;;;;;;;;;;5111868;28;20032;-74
2023/12/25 02:01:39;;;;;;;18.27;2.53;;;;;;;;;;5097674;28;20483;-74
2023/12/25 02:04:05;;;;;;;19.77;2.47;;;;;;;;;;5092268;28;20039;-75
2023/12/25 02:06:32;;;;;;;18.17;2.28;;;;;;;;;;5092935;28;20119;-76
2023/12/25 02:09:00;;;;;;;17.60;2.53;;;;;;;;;;5092810;28;20410;-76
2023/12/25 02:11:26;;;;;;;16.95;3.05;;;;;;;;;;5092175;28;20024;-76
2023/12/25 02:13:55;;;;;;;19.25;2.50;;;;;;;;;;5092515;28;20020;-76
2023/12/25 02:16:21;;;;;;;14.23;2.70;;;;;;;;;;5091412;28;20132;-77
2023/12/25 02:18:47;;;;;;;15.15;2.38;;;;;;;;;;5091970;28;20463;-75
2023/12/25 02:21:13;;;;;;;21.17;2.83;;;;;;;;;;5092297;28;20024;-76
2023/12/25 02:23:40;;;;;;;20.48;2.83;;;;;;;;;;5092729;28;20411;-78
2023/12/25 02:26:07;;;;;;;29.35;3.25;;;;;;;;;;5092630;28;20492;-77
2023/12/25 02:28:33;;;;;;;17.00;2.38;;;;;;;;;;5092532;28;20063;-78
2023/12/25 02:30:59;;;;;;;23.23;2.92;;;;;;;;;;5091781;28;20028;-75
2023/12/25 02:33:26;;;;;;;25.13;3.15;;;;;;;;;;5091356;28;20099;-77
2023/12/25 02:35:52;;;;;;;18.90;2.80;;;;;;;;;;5092777;28;20047;-77
2023/12/25 02:38:18;;;;;;;24.65;3.08;;;;;;;;;;5092865;28;20063;-75
2023/12/25 02:40:44;;;;;;;25.13;2.80;;;;;;;;;;5091785;28;20497;-75
2023/12/25 02:43:10;;;;;;;19.10;3.00;;;;;;;;;;5091644;28;20024;-76
2023/12/25 02:45:36;;;;;;;27.48;2.90;;;;;;;;;;5092369;28;20020;-77
2023/12/25 02:48:03;;;;;;;22.27;3.30;;;;;;;;;;5092380;28;20028;-76
2023/12/25 02:50:29;;;;;;;19.88;3.50;;;;;;;;;;5091357;28;20523;-78
2023/12/25 02:52:55;;;;;;;16.00;2.70;;;;;;;;;;5092037;28;20078;-76
2023/12/25 02:55:21;;;;;;;25.63;3.85;;;;;;;;;;5092061;28;20415;-76
2023/12/25 02:57:47;;;;;;;20.38;3.50;;;;;;;;;;5091217;28;20020;-75
2023/12/25 03:00:13;;;;;;;26.50;3.35;;;;;;;;;;5091779;28;20036;-76
2023/12/25 03:02:39;;;;;;;20.10;2.83;;;;;;;;;;5091619;28;20036;-77
2023/12/25 03:05:06;;;;;;;25.88;3.92;;;;;;;;;;5092350;28;20308;-75
2023/12/25 03:07:32;;;;;;;33.25;3.60;;;;;;;;;;5092116;28;20082;-76
2023/12/25 03:09:58;;;;;;;25.60;3.65;;;;;;;;;;5091364;28;20028;-77
2023/12/25 03:12:24;;;;;;;25.85;3.47;;;;;;;;;;5090760;28;20030;-76
2023/12/25 03:14:50;;;;;;;26.45;3.40;;;;;;;;;;5091450;28;20520;-74
2023/12/25 03:17:16;;;;;;;23.45;2.97;;;;;;;;;;5091853;28;20056;-75
2023/12/25 03:19:42;;;;;;;30.05;3.45;;;;;;;;;;5091235;28;20297;-75
2023/12/25 03:22:07;;;;;;;24.05;4.47;;;;;;;;;;5090829;28;20382;-76
2023/12/25 03:24:33;;;;;;;22.88;3.47;;;;;;;;;;5091166;28;20035;-74
2023/12/25 03:26:59;;;;;;;26.45;3.33;;;;;;;;;;5091447;28;20025;-75
2023/12/25 03:29:25;;;;;;;29.52;4.43;;;;;;;;;;5091285;28;20391;-76
2023/12/25 03:31:51;;;;;;;22.13;3.30;;;;;;;;;;5090876;28;20367;-76
2023/12/25 03:34:18;;;;;;;35.40;3.88;;;;;;;;;;5090909;28;20038;-77
2023/12/25 03:36:47;;;;;;;28.60;3.90;;;;;;;;;;5094456;28;20050;-76
2023/12/25 03:39:13;;;;;;;32.60;3.97;;;;;;;;;;5108553;28;20028;-74
2023/12/25 03:41:39;;;;;;;30.20;4.15;;;;;;;;;;5112825;28;20031;-73
2023/12/25 03:44:05;;;;;;;27.73;3.63;;;;;;;;;;5113579;28;20036;-74
2023/12/25 03:46:31;;;;;;;24.23;4.10;;;;;;;;;;5113864;28;20249;-75
2023/12/25 03:48:57;;;;;;;47.25;5.32;;;;;;;;;;5104032;28;20030;-77
2023/12/25 03:51:23;;;;;;;38.53;4.85;;;;;;;;;;5090665;28;20028;-76
2023/12/25 03:53:49;;;;;;;33.28;4.30;;;;;;;;;;5090655;28;20020;-77
2023/12/25 03:56:17;;;;;;;31.23;3.88;;;;;;;;;;5091052;28;20096;-76
2023/12/25 03:58:42;;;;;;;28.40;4.00;;;;;;;;;;5090939;28;20024;-76
2023/12/25 04:01:08;;;;;;;27.65;4.47;;;;;;;;;;5090646;28;20038;-76
2023/12/25 04:03:34;;;;;;;35.78;4.85;;;;;;;;;;5091791;28;20076;-76
2023/12/25 04:06:00;;;;;;;32.90;4.85;;;;;;;;;;5090845;28;20043;-77
2023/12/25 04:08:26;;;;;;;38.35;5.05;;;;;;;;;;5091029;28;20028;-77
2023/12/25 04:10:52;;;;;;;34.22;4.82;;;;;;;;;;5090686;28;20028;-77
2023/12/25 04:13:18;;;;;;;26.98;3.97;;;;;;;;;;5090988;28;20071;-75
2023/12/25 04:15:44;;;;;;;32.53;4.30;;;;;;;;;;5090339;28;20028;-75
2023/12/25 04:18:10;;;;;;;34.95;5.00;;;;;;;;;;5090711;28;20051;-76
2023/12/25 04:20:36;;;;;;;27.13;4.03;;;;;;;;;;5090266;28;20073;-76
2023/12/25 04:23:02;;;;;;;41.83;4.53;;;;;;;;;;5090464;28;20099;-77
2023/12/25 04:25:28;;;;;;;38.53;4.97;;;;;;;;;;5090835;28;20510;-77
2023/12/25 04:27:54;;;;;;;41.30;4.68;;;;;;;;;;5090493;28;20301;-77
2023/12/25 04:30:20;;;;;;;35.60;5.28;;;;;;;;;;5090865;28;20476;-77
2023/12/25 04:32:46;;;;;;;31.05;4.45;;;;;;;;;;5090509;28;20016;-77
2023/12/25 04:35:12;;;;;;;42.95;7.05;;;;;;;;;;5091268;28;20095;-78
2023/12/25 04:37:38;;;;;;;41.20;4.53;;;;;;;;;;5090607;28;20024;-76
2023/12/25 04:40:04;;;;;;;46.65;6.13;;;;;;;;;;5090493;28;20461;-74
2023/12/25 04:42:30;;;;;;;40.78;5.10;;;;;;;;;;5089646;28;20028;-76
2023/12/25 04:44:56;;;;;;;38.22;5.13;;;;;;;;;;5090427;28;20483;-77
2023/12/25 04:47:22;;;;;;;35.67;5.80;;;;;;;;;;5090917;28;20063;-76
2023/12/25 04:49:48;;;;;;;38.63;5.88;;;;;;;;;;5090666;28;20038;-75
2023/12/25 04:52:14;;;;;;;43.40;6.15;;;;;;;;;;5089745;28;20494;-76
2023/12/25 04:54:40;;;;;;;38.67;6.43;;;;;;;;;;5089955;28;20032;-75
2023/12/25 04:57:06;;;;;;;36.15;5.53;;;;;;;;;;5094256;28;20313;-76
2023/12/25 04:59:32;;;;;;;34.83;4.93;;;;;;;;;;5093816;28;20039;-75
2023/12/25 05:02:00;;;;;;;38.15;5.18;;;;;;;;;;5093367;28;20039;-76
2023/12/25 05:04:26;;;;;;;38.42;5.82;;;;;;;;;;5094004;28;20026;-76
2023/12/25 05:06:52;;;;;;;39.05;5.05;;;;;;;;;;5092825;28;20564;-76
2023/12/25 05:09:19;;;;;;;50.58;6.28;;;;;;;;;;5094178;28;20020;-76
2023/12/25 05:11:45;;;;;;;40.05;5.50;;;;;;;;;;5093591;28;20024;-76
2023/12/25 05:14:11;;;;;;;50.42;6.35;;;;;;;;;;5093794;28;20082;-76
2023/12/25 05:16:37;;;;;;;36.22;4.70;;;;;;;;;;5094003;28;20028;-77
2023/12/25 05:19:03;;;;;;;38.80;5.20;;;;;;;;;;5094002;28;20491;-75
2023/12/25 05:21:29;;;;;;;31.70;4.07;;;;;;;;;;5093933;28;20122;-75
2023/12/25 05:23:55;;;;;;;36.65;5.35;;;;;;;;;;5097408;28;20073;-76
2023/12/25 05:26:21;;;;;;;37.97;5.60;;;;;;;;;;5098712;28;20030;-75
2023/12/25 05:28:47;;;;;;;38.00;5.53;;;;;;;;;;5094753;28;20391;-76
2023/12/25 05:31:13;;;;;;;48.38;7.07;;;;;;;;;;5097457;28;20024;-80
2023/12/25 05:33:39;;;;;;;45.13;5.88;;;;;;;;;;5098036;28;20036;-77
2023/12/25 05:36:05;;;;;;;41.63;5.57;;;;;;;;;;5093855;28;20032;-77
2023/12/25 05:38:31;;;;;;;42.95;5.50;;;;;;;;;;5092893;28;20028;-78
2023/12/25 05:40:57;;;;;;;42.17;5.82;;;;;;;;;;5093996;28;20041;-78
2023/12/25 05:43:24;;;;;;;36.75;5.22;;;;;;;;;;5094239;28;20023;-77
2023/12/25 05:45:50;;;;;;;43.40;5.65;;;;;;;;;;5108106;28;20468;-78
2023/12/25 05:48:16;;;;;;;45.40;6.03;;;;;;;;;;5114517;28;20055;-78
2023/12/25 05:50:42;;;;;;;49.97;6.15;;;;;;;;;;5111683;28;20387;-78
2023/12/25 05:53:08;;;;;;;51.63;6.00;;;;;;;;;;5106535;28;20027;-77
2023/12/25 05:55:34;;;;;;;51.53;6.47;;;;;;;;;;5112883;28;20032;-76
2023/12/25 05:58:00;;;;;;;41.45;6.05;;;;;;;;;;5094787;28;20076;-78
2023/12/25 06:00:54;;;;;;;53.72;6.70;;;;;;;;;;5108382;28;20035;-76
2023/12/25 06:03:20;;;;;;;50.53;7.32;;;;;;;;;;5113367;28;20847;-78
2023/12/25 06:05:46;;;;;;;48.47;6.20;;;;;;;;;;5107894;28;20055;-80
2023/12/25 06:08:12;;;;;;;44.50;5.80;;;;;;;;;;5114358;28;20028;-78
2023/12/25 06:10:38;;;;;;;44.70;6.68;;;;;;;;;;5114740;28;20027;-78
2023/12/25 06:13:04;;;;;;;45.20;6.30;;;;;;;;;;5104804;28;20107;-77
2023/12/25 06:15:30;;;;;;;44.63;6.38;;;;;;;;;;5114451;28;20023;-77
2023/12/25 06:17:57;;;;;;;45.30;6.38;;;;;;;;;;5113028;28;20019;-78
2023/12/25 06:20:25;;;;;;;40.90;5.63;;;;;;;;;;5112065;28;20402;-78
2023/12/25 06:22:51;;;;;;;42.28;5.60;;;;;;;;;;5115375;28;20379;-79
2023/12/25 06:25:17;;;;;;;43.97;6.18;;;;;;;;;;5114994;28;20106;-79
2023/12/25 06:27:43;;;;;;;52.45;6.05;;;;;;;;;;5113275;27;20035;-79
2023/12/25 06:30:09;;;;;;;45.38;6.35;;;;;;;;;;5112585;28;20087;-79
2023/12/25 06:32:35;;;;;;;59.33;8.15;;;;;;;;;;5113441;28;20031;-77
2023/12/25 06:35:01;;;;;;;62.42;7.57;;;;;;;;;;5114001;28;20483;-77
2023/12/25 06:37:27;;;;;;;51.08;7.25;;;;;;;;;;5112848;28;20080;-79
2023/12/25 06:39:53;;;;;;;55.50;7.45;;;;;;;;;;5114024;27;20027;-76
2023/12/25 06:42:18;;;;;;;53.90;6.47;;;;;;;;;;5113217;28;20506;-77
2023/12/25 06:44:45;;;;;;;41.03;5.32;;;;;;;;;;5112363;28;20120;-76
2023/12/25 06:47:11;;;;;;;53.88;6.97;;;;;;;;;;5113736;28;20031;-77
2023/12/25 06:49:36;;;;;;;66.18;8.43;;;;;;;;;;5113568;28;20479;-77
2023/12/25 06:52:02;;;;;;;65.25;8.25;;;;;;;;;;5112816;28;20031;-77
2023/12/25 06:54:28;;;;;;;60.38;7.55;;;;;;;;;;5112061;28;20037;-79
2023/12/25 06:56:54;;;;;;;76.85;8.80;;;;;;;;;;5113414;28;20085;-77
2023/12/25 06:59:20;;;;;;;60.80;7.78;;;;;;;;;;5113136;28;20028;-76
2023/12/25 07:01:46;;;;;;;62.40;7.43;;;;;;;;;;5112391;28;20065;-75
2023/12/25 07:04:12;;;;;;;60.85;8.38;;;;;;;;;;5111144;28;20080;-75
2023/12/25 07:06:38;;;;;;;58.05;8.20;;;;;;;;;;5115924;28;20020;-75
2023/12/25 07:09:04;;;;;;;61.78;7.72;;;;;;;;;;5118602;28;20039;-76
2023/12/25 07:11:31;;;;;;;66.68;8.05;;;;;;;;;;5121056;28;20080;-75
2023/12/25 07:13:59;;;;;;;61.97;8.60;;;;;;;;;;5135932;28;20086;-75
2023/12/25 07:16:25;;;;;;;60.67;7.80;;;;;;;;;;5128655;28;20007;-74
2023/12/25 07:18:53;;;;;;;59.63;9.07;;;;;;;;;;5122345;28;20024;-75
2023/12/25 07:21:19;;;;;;;47.42;6.50;;;;;;;;;;5116291;28;20124;-76
2023/12/25 07:23:46;;;;;;;50.40;7.03;;;;;;;;;;5111929;28;20129;-77
2023/12/25 07:26:12;;;;;;;59.58;7.30;;;;;;;;;;5102088;28;20015;-75
2023/12/25 07:28:38;;;;;;;59.78;8.13;;;;;;;;;;5112420;28;20027;-76
2023/12/25 07:31:04;;;;;;;44.20;5.93;;;;;;;;;;5092749;28;20107;-76
2023/12/25 07:33:30;;;;;;;48.33;6.88;;;;;;;;;;5099486;28;20107;-77
2023/12/25 07:35:56;;;;;;;47.97;6.65;;;;;;;;;;5092696;28;20493;-75
2023/12/25 07:38:22;;;;;;;58.60;6.43;;;;;;;;;;5091941;28;20107;-75
2023/12/25 07:40:50;;;;;;;63.13;6.95;;;;;;;;;;5091215;28;20028;-75
2023/12/25 07:43:16;;;;;;;52.20;7.75;;;;;;;;;;5091821;28;20031;-77
2023/12/25 07:45:42;;;;;;;50.08;7.47;;;;;;;;;;5107749;28;20039;-75
2023/12/25 07:48:08;;;;;;;58.42;6.10;;;;;;;;;;5112900;28;20015;-74
2023/12/25 07:50:34;;;;;;;57.22;6.60;;;;;;;;;;5111822;28;20031;-75
2023/12/25 07:53:00;;;;;;;46.20;7.22;;;;;;;;;;5112244;28;20024;-76
2023/12/25 07:55:26;;;;;;;65.13;8.27;;;;;;;;;;5112809;28;20028;-75
2023/12/25 07:57:52;;;;;;;47.22;6.78;;;;;;;;;;5112567;28;20045;-75
2023/12/25 08:00:18;;;;;;;48.42;7.03;;;;;;;;;;5112349;28;20039;-76
2023/12/25 08:02:44;;;;;;;60.33;7.97;;;;;;;;;;5111956;28;20032;-76
2023/12/25 08:05:10;;;;;;;56.58;6.53;;;;;;;;;;5112564;28;20023;-77
2023/12/25 08:07:36;;;;;;;54.17;7.00;;;;;;;;;;5113081;28;20024;-76
2023/12/25 08:10:01;;;;;;;59.88;7.72;;;;;;;;;;5112514;28;20114;-75
2023/12/25 08:12:27;;;;;;;63.03;7.25;;;;;;;;;;5111874;28;20031;-76
2023/12/25 08:14:53;;;;;;;49.55;6.85;;;;;;;;;;5112472;28;20030;-77
2023/12/25 08:17:20;;;;;;;64.78;7.85;;;;;;;;;;5112984;28;20031;-77
2023/12/25 08:19:46;;;;;;;65.68;9.02;;;;;;;;;;5113610;28;20019;-77
2023/12/25 08:22:12;;;;;;;59.28;7.18;;;;;;;;;;5112426;28;20028;-75
2023/12/25 08:24:38;;;;;;;71.13;8.23;;;;;;;;;;5112598;28;20068;-75
2023/12/25 08:27:04;;;;;;;70.03;8.75;;;;;;;;;;5112869;28;20382;-76
2023/12/25 08:29:30;;;;;;;69.68;8.48;;;;;;;;;;5112302;28;20047;-75
2023/12/25 08:31:56;;;;;;;80.78;8.65;;;;;;;;;;5115209;28;20483;-75
2023/12/25 08:34:25;;;;;;;63.10;7.93;;;;;;;;;;5115668;28;20094;-75
2023/12/25 08:36:51;;;;;;;60.63;8.40;;;;;;;;;;5117011;28;20027;-76
2023/12/25 08:39:17;;;;;;;74.72;10.82;;;;;;;;;;5116073;28;20030;-78
2023/12/25 08:41:43;;;;;;;67.43;9.13;;;;;;;;;;5116124;28;20122;-75
2023/12/25 08:44:09;;;;;;;59.25;7.68;;;;;;;;;;5117364;28;20107;-75
2023/12/25 08:46:35;;;;;;;61.42;8.02;;;;;;;;;;5116665;28;20123;-77
2023/12/25 08:49:01;;;;;;;60.08;7.47;;;;;;;;;;5117772;28;20055;-77
2023/12/25 08:51:27;;;;;;;69.65;8.52;;;;;;;;;;5116486;28;20034;-76
2023/12/25 08:53:53;;;;;;;73.57;9.90;;;;;;;;;;5122361;28;20019;-76
2023/12/25 08:56:26;;;;;;;63.83;9.27;;;;;;;;;;5130494;28;20028;-75
2023/12/25 08:58:52;;;;;;;70.63;8.98;;;;;;;;;;5133825;28;20075;-76
2023/12/25 09:01:19;;;;;;;63.22;7.95;;;;;;;;;;5122055;28;20040;-76
2023/12/25 09:03:45;;;;;;;58.70;8.00;;;;;;;;;;5134356;28;20027;-76
2023/12/25 09:06:12;;;;;;;55.63;7.68;;;;;;;;;;5125864;28;20394;-76
2023/12/25 09:08:39;;;;;;;56.95;8.30;;;;;;;;;;5124987;28;20027;-77
2023/12/25 09:11:05;;;;;;;60.80;7.55;;;;;;;;;;5112473;28;20024;-74
2023/12/25 09:13:31;;;;;;;55.40;7.65;;;;;;;;;;5095362;28;20032;-75
2023/12/25 09:15:57;;;;;;;55.25;7.65;;;;;;;;;;5095937;28;20043;-77
2023/12/25 09:18:23;;;;;;;56.97;7.72;;;;;;;;;;5094408;28;20028;-76
2023/12/25 09:20:49;;;;;;;58.08;7.97;;;;;;;;;;5093416;28;21102;-76
2023/12/25 09:23:15;;;;;;;56.28;7.45;;;;;;;;;;5114697;28;20141;-75
2023/12/25 09:25:40;;;;;;;57.85;7.60;;;;;;;;;;5115066;28;20020;-76
2023/12/25 09:28:07;;;;;;;59.65;8.20;;;;;;;;;;5114642;28;20081;-75
2023/12/25 09:30:33;;;;;;;55.42;7.82;;;;;;;;;;5114096;28;20062;-78
2023/12/25 09:32:59;;;;;;;63.30;8.70;;;;;;;;;;5114445;28;20023;-77
2023/12/25 09:35:25;;;;;;;55.65;8.48;;;;;;;;;;5114762;28;20089;-77
2023/12/25 09:37:51;;;;;;;51.78;8.35;;;;;;;;;;5114708;28;20483;-76
2023/12/25 09:40:17;;;;;;;62.75;7.88;;;;;;;;;;5114620;28;20028;-78
2023/12/25 09:42:45;;;;;;;65.88;8.27;;;;;;;;;;5113506;28;20023;-75
2023/12/25 09:45:12;;;;;;;70.47;8.93;;;;;;;;;;5114667;28;20364;-73
2023/12/25 09:47:38;;;;;;;62.97;7.80;;;;;;;;;;5114306;28;20058;-75
2023/12/25 09:50:05;;;;;;;59.90;7.68;;;;;;;;;;5114972;28;20541;-76
2023/12/25 09:52:31;;;;;;;65.78;7.65;;;;;;;;;;5100869;28;20035;-76
2023/12/25 09:54:57;;;;;;;69.10;8.90;;;;;;;;;;5094515;28;20024;-77
2023/12/25 09:57:24;;;;;;;58.30;7.35;;;;;;;;;;5095487;28;20506;-76
2023/12/25 09:59:54;;;;;;;74.95;8.38;;;;;;;;;;5093977;28;20030;-76
2023/12/25 10:02:23;;;;;;;60.40;7.88;;;;;;;;;;5093861;28;20095;-77
2023/12/25 10:04:50;;;;;;;58.38;7.75;;;;;;;;;;5094287;28;20024;-76
2023/12/25 10:07:20;;;;;;;61.47;7.70;;;;;;;;;;5093690;28;20198;-75
2023/12/25 10:09:46;;;;;;;69.47;8.65;;;;;;;;;;5093552;28;20027;-76
2023/12/25 10:12:12;;;;;;;52.97;8.00;;;;;;;;;;5092959;28;20044;-75
2023/12/25 10:14:38;;;;;;;57.28;7.60;;;;;;;;;;5093287;28;20059;-75
2023/12/25 10:17:05;;;;;;;65.47;8.63;;;;;;;;;;5093755;28;20475;-76
2023/12/25 10:19:30;;;;;;;69.57;9.80;;;;;;;;;;5093486;28;20036;-74
2023/12/25 10:21:56;;;;;;;69.10;8.73;;;;;;;;;;5093446;28;20089;-75
2023/12/25 10:24:26;;;;;;;51.85;7.82;;;;;;;;;;5093572;28;20025;-75
2023/12/25 10:26:54;;;;;;;63.40;7.70;;;;;;;;;;5092582;28;20020;-76
2023/12/25 10:29:20;;;;;;;68.63;8.10;;;;;;;;;;5092302;28;20020;-76
2023/12/25 10:31:47;;;;;;;60.15;8.32;;;;;;;;;;5093165;28;20044;-75
2023/12/25 10:34:19;;;;;;;45.55;8.15;;;;;;;;;;5093162;28;20081;-76
2023/12/25 10:36:48;;;;;;;61.50;7.95;;;;;;;;;;5093329;28;20103;-75
2023/12/25 10:39:29;;;;;;;61.20;7.57;;;;;;;;;;5092943;28;20206;-76
2023/12/25 10:41:55;;;;;;;52.72;7.45;;;;;;;;;;5094171;28;20012;-75
2023/12/25 10:44:21;;;;;;;56.80;7.05;;;;;;;;;;5096118;28;20020;-75
2023/12/25 10:46:48;;;;;;;53.20;8.38;;;;;;;;;;5098090;28;20028;-74
2023/12/25 10:49:14;;;;;;;47.83;5.82;;;;;;;;;;5096488;28;20489;-75
2023/12/25 10:51:41;;;;;;;48.50;7.03;;;;;;;;;;5097913;28;20066;-76
2023/12/25 10:54:10;;;;;;;42.58;6.25;;;;;;;;;;5092406;28;20197;-76
2023/12/25 10:56:37;;;;;;;44.85;8.02;;;;;;;;;;5093286;28;20053;-76
2023/12/25 10:59:07;;;;;;;43.30;7.35;;;;;;;;;;5092943;28;20066;-75
2023/12/25 11:01:34;;;;;;;46.92;6.68;;;;;;;;;;5093174;28;20028;-75
2023/12/25 11:04:01;;;;;;;51.50;7.80;;;;;;;;;;5092908;28;20472;-75
2023/12/25 11:06:28;;;;;;;68.22;7.35;;;;;;;;;;5092661;28;20028;-75
2023/12/25 11:08:54;;;;;;;44.47;5.88;;;;;;;;;;5092346;28;20032;-76
2023/12/25 11:11:20;;;;;;;59.42;6.88;;;;;;;;;;5092410;28;20104;-75
2023/12/25 11:13:47;;;;;;;56.60;7.22;;;;;;;;;;5092251;28;20066;-75
2023/12/25 11:16:13;;;;;;;55.15;7.57;;;;;;;;;;5092727;28;20024;-75
2023/12/25 11:18:39;;;;;;;52.50;7.47;;;;;;;;;;5092623;28;20021;-75
2023/12/25 11:21:09;;;;;;;52.15;7.53;;;;;;;;;;5092297;28;20022;-75
2023/12/25 11:23:36;;;;;;;48.90;7.50;;;;;;;;;;5093386;28;20023;-77
2023/12/25 11:26:05;;;;;;;53.13;6.47;;;;;;;;;;5092885;28;20028;-77
2023/12/25 11:28:32;;;;;;;56.08;7.65;;;;;;;;;;5104186;28;20435;-76
2023/12/25 11:30:58;;;;;;;51.83;7.00;;;;;;;;;;5110510;28;20536;-77
2023/12/25 11:33:26;;;;;;;44.47;6.70;;;;;;;;;;5110827;28;20024;-77
2023/12/25 11:35:53;;;;;;;38.22;6.78;;;;;;;;;;5110371;28;20418;-77
2023/12/25 11:38:19;;;;;;;43.95;6.13;;;;;;;;;;5112628;28;20372;-75
2023/12/25 11:40:45;;;;;;;42.72;5.78;;;;;;;;;;5111684;28;20505;-74
2023/12/25 11:43:14;;;;;;;50.22;6.75;;;;;;;;;;5112540;28;20024;-77
2023/12/25 11:45:43;;;;;;;42.28;6.20;;;;;;;;;;5111792;28;20016;-76
2023/12/25 11:48:11;;;;;;;47.13;5.93;;;;;;;;;;5112853;28;20045;-75
2023/12/25 11:50:37;;;;;;;38.80;6.10;;;;;;;;;;5112078;28;20019;-75
2023/12/25 11:53:03;;;;;;;38.08;5.88;;;;;;;;;;5110806;28;20028;-75
2023/12/25 11:55:30;;;;;;;42.95;6.13;;;;;;;;;;5112568;28;20023;-77
2023/12/25 11:57:58;;;;;;;40.17;6.18;;;;;;;;;;5112645;28;20131;-77
2023/12/25 12:00:25;;;;;;;42.40;6.75;;;;;;;;;;5111879;28;20050;-77
2023/12/25 12:02:52;;;;;;;37.35;5.93;;;;;;;;;;5111841;28;20039;-80
2023/12/25 12:05:18;;;;;;;52.47;6.70;;;;;;;;;;5115429;28;20375;-78
2023/12/25 12:07:44;;;;;;;44.80;6.97;;;;;;;;;;5115282;28;20035;-77
2023/12/25 12:10:11;;;;;;;34.95;5.60;;;;;;;;;;5114543;28;20028;-78
2023/12/25 12:12:37;;;;;;;45.30;6.88;;;;;;;;;;5114040;27;20117;-77
2023/12/25 12:15:04;;;;;;;40.78;6.57;;;;;;;;;;5114942;28;20032;-77
2023/12/25 12:17:30;;;;;;;40.78;5.85;;;;;;;;;;5114983;28;20031;-75
2023/12/25 12:19:56;;;;;;;34.22;6.25;;;;;;;;;;5114421;28;20038;-76
2023/12/25 12:22:23;;;;;;;36.90;6.07;;;;;;;;;;5113337;28;20020;-76
2023/12/25 12:24:50;;;;;;;28.15;5.00;;;;;;;;;;5114122;28;20086;-76
2023/12/25 12:27:19;;;;;;;28.67;5.60;;;;;;;;;;5125503;28;20042;-75
2023/12/25 12:29:46;;;;;;;36.55;5.50;;;;;;;;;;5134426;28;20067;-76
2023/12/25 12:32:13;;;;;;;36.42;6.10;;;;;;;;;;5132695;28;20023;-77
2023/12/25 12:34:39;;;;;;;37.63;5.43;;;;;;;;;;5126020;28;20019;-75
2023/12/25 12:37:05;;;;;;;36.42;6.13;;;;;;;;;;5114803;28;20053;-75
2023/12/25 12:39:31;;;;;;;35.40;5.72;;;;;;;;;;5111785;28;20494;-75
2023/12/25 12:41:58;;;;;;;35.63;5.78;;;;;;;;;;5113067;28;20047;-75
2023/12/25 12:44:24;;;;;;;24.17;5.13;;;;;;;;;;5115584;28;20088;-76
2023/12/25 12:46:53;;;;;;;36.55;6.13;;;;;;;;;;5116353;28;20020;-75
2023/12/25 12:49:20;;;;;;;41.75;5.90;;;;;;;;;;5117103;28;20028;-75
2023/12/25 12:51:46;;;;;;;36.88;5.75;;;;;;;;;;5116063;28;20038;-76
2023/12/25 12:54:12;;;;;;;36.97;6.60;;;;;;;;;;5116080;28;20023;-75
2023/12/25 12:56:38;;;;;;;32.42;5.55;;;;;;;;;;5115407;28;20027;-76
2023/12/25 12:59:04;;;;;;;34.70;6.25;;;;;;;;;;5113669;28;20364;-76
2023/12/25 13:01:31;;;;;;;38.10;6.20;;;;;;;;;;5114977;28;20598;-77
2023/12/25 13:03:57;;;;;;;43.20;6.78;;;;;;;;;;5116048;28;20015;-76
2023/12/25 13:06:24;;;;;;;32.33;6.10;;;;;;;;;;5115667;28;20032;-77
2023/12/25 13:08:53;;;;;;;36.95;6.20;;;;;;;;;;5116603;28;20023;-76
2023/12/25 13:11:20;;;;;;;36.88;6.78;;;;;;;;;;5116482;28;20027;-76
2023/12/25 13:13:46;;;;;;;36.58;6.32;;;;;;;;;;5117039;28;20073;-79
2023/12/25 13:16:14;;;;;;;38.35;7.00;;;;;;;;;;5117425;28;20115;-76
2023/12/25 13:18:40;;;;;;;32.05;7.03;;;;;;;;;;5115822;27;20221;-77
2023/12/25 13:21:07;;;;;;;39.53;6.25;;;;;;;;;;5117666;28;20429;-76
2023/12/25 13:23:33;;;;;;;32.53;6.30;;;;;;;;;;5118235;28;20024;-75
2023/12/25 13:25:59;;;;;;;30.98;5.15;;;;;;;;;;5116093;28;20105;-75
2023/12/25 13:28:25;;;;;;;31.52;5.25;;;;;;;;;;5121939;28;20016;-75
2023/12/25 13:30:51;;;;;;;39.22;6.55;;;;;;;;;;5133418;28;20053;-78
2023/12/25 13:33:17;;;;;;;35.17;6.07;;;;;;;;;;5134903;28;20032;-78
2023/12/25 13:35:43;;;;;;;35.38;6.65;;;;;;;;;;5136464;28;20035;-78
2023/12/25 13:38:09;;;;;;;30.88;5.25;;;;;;;;;;5139314;28;20012;-77
2023/12/25 13:40:35;;;;;;;38.55;6.57;;;;;;;;;;5137508;28;20044;-82
2023/12/25 13:43:01;;;;;;;46.53;6.13;;;;;;;;;;5139230;28;20061;-79
2023/12/25 13:45:28;;;;;;;45.63;6.85;;;;;;;;;;5122115;28;20393;-80
2023/12/25 13:47:54;;;;;;;46.38;5.65;;;;;;;;;;5117561;28;20103;-78
2023/12/25 13:50:20;;;;;;;37.30;5.90;;;;;;;;;;5116549;28;20019;-77
2023/12/25 13:52:46;;;;;;;49.42;9.57;;;;;;;;;;5116917;28;20031;-78
2023/12/25 13:55:14;;;;;;;45.55;9.25;;;;;;;;;;5116403;28;20039;-78
2023/12/25 13:57:40;;;;;;;39.10;5.93;;;;;;;;;;5117607;28;20023;-78
2023/12/25 14:00:09;;;;;;;42.30;7.55;;;;;;;;;;5118084;28;20028;-81
2023/12/25 14:02:35;;;;;;;46.50;6.60;;;;;;;;;;5121779;28;20017;-78
2023/12/25 14:05:01;;;;;;;45.75;6.43;;;;;;;;;;5117828;28;20046;-77
2023/12/25 14:07:27;;;;;;;53.63;7.53;;;;;;;;;;5117549;27;20027;-79
2023/12/25 14:09:53;;;;;;;42.42;6.40;;;;;;;;;;5118367;28;20077;-80
2023/12/25 14:12:19;;;;;;;54.13;6.28;;;;;;;;;;5119839;28;20024;-77
2023/12/25 14:14:46;;;;;;;52.10;7.13;;;;;;;;;;5134693;28;20057;-75
2023/12/25 14:17:12;;;;;;;55.38;8.63;;;;;;;;;;5115200;28;20223;-74
2023/12/25 14:19:38;;;;;;;53.60;6.53;;;;;;;;;;5113501;28;20364;-74
2023/12/25 14:22:04;;;;;;;56.55;8.57;;;;;;;;;;5113099;28;20051;-74
2023/12/25 14:24:35;;;;;;;53.78;7.00;;;;;;;;;;5104367;28;20095;-75
2023/12/25 14:27:02;;;;;;;53.78;6.97;;;;;;;;;;5112755;28;20024;-75